Time;durP1;ratioP1;P1;durP2;ratioP2;P2;SDS_P1;SDS_P2;PMS_P1;PMS_P2;Temp;Humidity;BMP_temperature;BMP_pressure;BME280_temperature;BME280_humidity;BME280_pressure;Samples;Min_cycle;Max_cycle;Signal;HPM_P1;HPM_P2
2023/08/13 00:00:34;;;;;;;9.52;2.55;;;16.30;99.90;;;;;;5012386;28;20080;-84
2023/08/13 00:03:00;;;;;;;11.48;2.80;;;16.40;99.90;;;;;;5012571;28;20053;-84
2023/08/13 00:05:26;;;;;;;10.90;3.10;;;16.40;99.90;;;;;;5012806;28;20494;-84
2023/08/13 00:07:52;;;;;;;10.27;2.83;;;16.40;99.90;;;;;;5013143;28;20064;-84
2023/08/13 00:10:17;;;;;;;10.90;2.50;;;16.40;99.90;;;;;;4996013;28;20398;-84
2023/08/13 00:12:43;;;;;;;11.63;2.97;;;16.40;99.90;;;;;;4995481;28;20102;-84
2023/08/13 00:15:10;;;;;;;8.45;2.53;;;16.40;99.90;;;;;;4996016;28;20041;-86
2023/08/13 00:17:36;;;;;;;11.23;3.08;;;16.40;99.90;;;;;;5012910;28;20069;-86
2023/08/13 00:20:02;;;;;;;11.57;2.70;;;16.40;99.90;;;;;;5009472;28;20037;-87
2023/08/13 00:22:29;;;;;;;10.55;2.85;;;16.50;99.90;;;;;;5031562;28;20029;-88
2023/08/13 00:24:55;;;;;;;7.57;2.40;;;16.50;99.90;;;;;;5032292;28;20045;-85
2023/08/13 00:27:21;;;;;;;10.80;2.53;;;16.50;99.90;;;;;;5031590;28;20406;-84
2023/08/13 00:29:46;;;;;;;11.13;2.80;;;16.50;99.90;;;;;;5031461;28;20034;-85
2023/08/13 00:32:12;;;;;;;10.70;3.00;;;16.50;99.90;;;;;;5029731;28;20041;-82
2023/08/13 00:34:38;;;;;;;9.35;2.78;;;16.40;99.90;;;;;;5004625;28;20033;-83
2023/08/13 00:37:03;;;;;;;11.25;3.03;;;16.40;99.90;;;;;;5002948;28;20110;-83
2023/08/13 00:39:29;;;;;;;14.38;3.08;;;16.40;99.90;;;;;;5014735;28;20052;-84
2023/08/13 00:41:54;;;;;;;10.48;2.60;;;16.40;99.90;;;;;;5025149;28;20032;-85
2023/08/13 00:44:20;;;;;;;9.48;2.85;;;16.40;99.90;;;;;;5031885;28;20087;-84
2023/08/13 00:46:46;;;;;;;11.02;2.63;;;16.40;99.90;;;;;;4998786;28;20088;-84
2023/08/13 00:49:13;;;;;;;12.15;2.63;;;16.40;99.90;;;;;;5021841;28;20025;-85
2023/08/13 00:51:39;;;;;;;9.88;2.83;;;16.40;99.90;;;;;;5007535;28;20038;-84
2023/08/13 00:54:07;;;;;;;11.55;2.85;;;16.40;99.90;;;;;;5012402;28;20046;-85
2023/08/13 00:56:33;;;;;;;9.85;2.90;;;16.40;99.90;;;;;;5013135;28;20053;-85
2023/08/13 00:58:58;;;;;;;11.82;2.85;;;16.40;99.90;;;;;;5022492;28;20045;-86
2023/08/13 01:01:24;;;;;;;9.30;2.70;;;16.50;99.90;;;;;;5017360;28;20116;-84
2023/08/13 01:03:50;;;;;;;10.85;2.70;;;16.50;99.90;;;;;;5030292;28;20048;-84
2023/08/13 01:06:18;;;;;;;11.90;3.17;;;16.50;99.90;;;;;;5014275;28;20427;-84
2023/08/13 01:09:10;;;;;;;7.43;2.50;;;16.50;99.90;;;;;;5017866;28;20053;-84
2023/08/13 01:11:55;;;;;;;9.27;2.22;;;16.40;99.90;;;;;;4999549;28;20046;-85
2023/08/13 01:14:29;;;;;;;11.50;3.00;;;16.40;99.90;;;;;;5018927;28;20512;-85
2023/08/13 01:16:57;;;;;;;9.13;2.38;;;16.40;99.90;;;;;;5033114;28;20108;-86
2023/08/13 01:19:23;;;;;;;11.90;3.00;;;16.30;99.90;;;;;;5017845;28;20502;-86
2023/08/13 01:21:49;;;;;;;10.48;2.60;;;16.30;99.90;;;;;;5035281;28;20029;-86
2023/08/13 01:24:15;;;;;;;11.40;2.90;;;16.30;99.90;;;;;;5007386;28;20091;-85
2023/08/13 01:26:55;;;;;;;11.65;2.90;;;16.30;99.90;;;;;;4999114;28;20056;-86
2023/08/13 01:29:29;;;;;;;10.23;2.50;;;16.30;99.90;;;;;;4999064;28;20041;-85
2023/08/13 01:31:57;;;;;;;10.20;2.55;;;16.30;99.90;;;;;;5023550;28;20033;-84
2023/08/13 01:34:24;;;;;;;9.57;2.78;;;16.20;99.90;;;;;;5019503;28;20383;-86
2023/08/13 01:36:50;;;;;;;12.10;2.85;;;16.20;99.90;;;;;;4998493;28;20038;-86
2023/08/13 01:39:16;;;;;;;10.85;2.67;;;16.20;99.90;;;;;;5033629;28;20152;-86
2023/08/13 01:41:52;;;;;;;13.02;3.25;;;16.20;99.90;;;;;;5036270;28;20505;-85
2023/08/13 01:44:18;;;;;;;10.88;2.80;;;16.20;99.90;;;;;;5034491;28;20043;-85
2023/08/13 01:46:44;;;;;;;12.60;2.97;;;16.20;99.90;;;;;;5016886;28;20120;-88
2023/08/13 01:49:09;;;;;;;10.02;3.00;;;16.30;99.90;;;;;;5031321;28;20038;-85
2023/08/13 01:51:35;;;;;;;11.38;2.80;;;16.30;99.90;;;;;;5021958;28;20034;-88
2023/08/13 01:54:00;;;;;;;10.80;2.90;;;16.20;99.90;;;;;;5017352;28;20044;-85
2023/08/13 01:56:26;;;;;;;10.55;2.72;;;16.30;99.90;;;;;;5018129;28;20387;-86
2023/08/13 01:58:51;;;;;;;11.52;3.15;;;16.30;99.90;;;;;;5018958;28;20135;-87
2023/08/13 02:01:17;;;;;;;10.23;3.05;;;16.20;99.90;;;;;;5036804;28;20091;-87
2023/08/13 02:03:43;;;;;;;11.05;3.00;;;16.20;99.90;;;;;;5027394;28;20075;-85
2023/08/13 02:06:09;;;;;;;10.38;3.42;;;16.20;99.90;;;;;;5006961;28;20500;-86
2023/08/13 02:08:34;;;;;;;12.82;3.00;;;16.20;99.90;;;;;;5032754;28;20029;-86
2023/08/13 02:11:00;;;;;;;12.40;3.05;;;16.20;99.90;;;;;;5051007;28;20400;-85
2023/08/13 02:13:25;;;;;;;12.68;3.00;;;16.20;99.90;;;;;;5034486;28;20537;-85
2023/08/13 02:15:51;;;;;;;12.57;3.30;;;16.20;99.90;;;;;;5006482;28;20034;-86
2023/08/13 02:18:16;;;;;;;10.63;3.35;;;16.20;99.90;;;;;;5034050;28;20045;-86
2023/08/13 02:20:42;;;;;;;12.98;2.83;;;16.20;99.90;;;;;;5011087;28;20045;-85
2023/08/13 02:23:07;;;;;;;13.00;3.28;;;16.30;99.90;;;;;;5012016;28;20049;-87
2023/08/13 02:25:33;;;;;;;10.55;2.88;;;16.30;99.90;;;;;;5007759;28;20041;-85
2023/08/13 02:27:59;;;;;;;11.98;2.95;;;16.20;99.90;;;;;;5032801;28;20051;-84
2023/08/13 02:30:24;;;;;;;14.50;2.97;;;16.30;99.90;;;;;;5010047;28;20085;-86
2023/08/13 02:32:50;;;;;;;11.70;3.30;;;16.30;99.90;;;;;;5002331;28;20407;-86
2023/08/13 02:35:15;;;;;;;12.63;3.45;;;16.30;99.90;;;;;;5028299;28;20128;-85
2023/08/13 02:37:41;;;;;;;11.40;3.10;;;16.20;99.90;;;;;;5018059;28;20044;-85
2023/08/13 02:40:07;;;;;;;10.35;3.08;;;16.20;99.90;;;;;;5010449;28;20037;-85
2023/08/13 02:42:33;;;;;;;10.13;2.83;;;16.20;99.90;;;;;;5012423;28;20042;-87
2023/08/13 02:44:58;;;;;;;13.50;3.05;;;16.20;99.90;;;;;;5038169;28;20033;-84
2023/08/13 02:47:25;;;;;;;13.73;3.17;;;16.30;99.90;;;;;;5045228;28;20033;-85
2023/08/13 02:49:50;;;;;;;13.45;3.45;;;16.30;99.90;;;;;;5035017;28;20046;-84
2023/08/13 02:52:16;;;;;;;11.82;2.88;;;16.20;99.90;;;;;;5014313;28;20045;-86
2023/08/13 02:54:42;;;;;;;12.80;3.45;;;16.20;99.90;;;;;;5031393;28;20037;-87
2023/08/13 02:57:07;;;;;;;13.52;3.45;;;16.20;99.90;;;;;;4999899;28;20037;-86
2023/08/13 02:59:33;;;;;;;12.88;3.00;;;16.20;99.90;;;;;;5004316;28;20029;-85
2023/08/13 03:01:58;;;;;;;10.27;2.95;;;16.20;99.90;;;;;;5019963;28;20080;-84
2023/08/13 03:04:24;;;;;;;10.70;2.70;;;16.20;99.90;;;;;;5034383;28;20033;-90
2023/08/13 03:06:50;;;;;;;10.27;2.90;;;16.20;99.90;;;;;;5001298;28;20405;-86
2023/08/13 03:09:21;;;;;;;15.85;4.20;;;16.30;99.90;;;;;;5014874;28;20036;-84
2023/08/13 03:11:47;;;;;;;16.17;3.33;;;16.20;99.90;;;;;;5030299;28;20033;-84
2023/08/13 03:14:12;;;;;;;11.25;2.70;;;16.20;99.90;;;;;;5032185;28;20482;-85
2023/08/13 03:16:38;;;;;;;13.88;3.35;;;16.20;99.90;;;;;;5016472;28;20191;-85
2023/08/13 03:19:04;;;;;;;13.00;3.20;;;16.20;99.90;;;;;;5031486;28;20045;-85
2023/08/13 03:21:29;;;;;;;10.90;3.00;;;16.20;99.90;;;;;;5016047;28;20042;-87
2023/08/13 03:23:55;;;;;;;12.93;2.70;;;16.20;99.90;;;;;;5015630;28;20045;-85
2023/08/13 03:26:20;;;;;;;11.23;2.88;;;16.20;99.90;;;;;;5000475;28;20417;-87
2023/08/13 03:28:46;;;;;;;11.60;2.72;;;16.20;99.90;;;;;;5000318;28;20037;-83
2023/08/13 03:31:11;;;;;;;13.82;3.15;;;16.20;99.90;;;;;;5007432;28;20038;-83
2023/08/13 03:33:37;;;;;;;10.70;2.95;;;16.20;99.90;;;;;;5031401;28;20041;-83
2023/08/13 03:36:03;;;;;;;12.02;2.90;;;16.20;99.90;;;;;;5025586;28;20551;-85
2023/08/13 03:38:29;;;;;;;15.27;3.38;;;16.10;99.90;;;;;;5019217;28;20033;-85
2023/08/13 03:40:55;;;;;;;12.80;2.72;;;16.10;99.90;;;;;;5008070;28;20128;-85
2023/08/13 03:43:21;;;;;;;13.15;3.25;;;16.10;99.90;;;;;;5026086;28;20037;-85
2023/08/13 03:45:47;;;;;;;14.60;3.38;;;16.10;99.90;;;;;;5031406;28;20033;-85
2023/08/13 03:48:12;;;;;;;10.57;3.22;;;16.10;99.90;;;;;;5007608;28;20041;-85
2023/08/13 03:50:42;;;;;;;14.07;3.55;;;16.10;99.90;;;;;;4996841;28;20041;-85
2023/08/13 03:53:08;;;;;;;10.60;3.03;;;16.00;99.90;;;;;;5023007;28;20041;-85
2023/08/13 03:55:35;;;;;;;12.68;3.15;;;16.10;99.90;;;;;;5014852;28;20087;-85
2023/08/13 03:58:01;;;;;;;14.95;3.55;;;16.10;99.90;;;;;;4999193;28;20041;-85
2023/08/13 04:00:26;;;;;;;12.32;3.17;;;16.10;99.90;;;;;;4997144;28;20557;-85
2023/08/13 04:02:52;;;;;;;14.02;3.20;;;16.10;99.90;;;;;;5028380;28;20206;-85
2023/08/13 04:05:17;;;;;;;12.40;3.17;;;16.10;99.90;;;;;;5006143;28;20042;-85
2023/08/13 04:07:43;;;;;;;11.68;3.10;;;16.10;99.90;;;;;;4999213;28;20029;-85
2023/08/13 04:10:09;;;;;;;15.63;3.55;;;16.10;99.90;;;;;;4998581;28;20033;-86
2023/08/13 04:12:34;;;;;;;10.50;3.40;;;16.10;99.90;;;;;;5006803;28;20053;-86
2023/08/13 04:15:02;;;;;;;13.73;3.35;;;16.10;99.90;;;;;;5014889;28;20052;-85
2023/08/13 04:17:27;;;;;;;13.60;3.20;;;16.10;99.90;;;;;;5023601;28;20033;-85
2023/08/13 04:19:53;;;;;;;11.25;3.67;;;16.10;99.90;;;;;;4997227;28;20549;-85
2023/08/13 04:22:18;;;;;;;12.23;3.20;;;16.00;99.90;;;;;;5027174;28;20053;-85
2023/08/13 04:24:50;;;;;;;13.55;3.55;;;16.10;99.90;;;;;;5016299;28;20164;-84
2023/08/13 04:27:16;;;;;;;15.40;3.30;;;16.10;99.90;;;;;;5030554;28;20061;-85
2023/08/13 04:29:42;;;;;;;13.07;3.28;;;16.10;99.90;;;;;;5000961;28;20096;-84
2023/08/13 04:32:07;;;;;;;13.70;3.35;;;16.10;99.90;;;;;;5005063;28;20140;-84
2023/08/13 04:34:33;;;;;;;10.68;2.97;;;16.10;99.90;;;;;;5018359;28;20041;-84
2023/08/13 04:36:58;;;;;;;14.65;3.50;;;16.20;99.90;;;;;;5007099;28;20044;-84
2023/08/13 04:39:24;;;;;;;13.40;3.13;;;16.20;99.90;;;;;;5010540;28;20498;-84
2023/08/13 04:41:50;;;;;;;12.35;3.45;;;16.10;99.90;;;;;;5013784;28;20045;-84
2023/08/13 04:44:15;;;;;;;11.13;3.40;;;16.10;99.90;;;;;;5017335;28;20382;-84
2023/08/13 04:46:41;;;;;;;10.55;3.10;;;16.20;99.90;;;;;;5001987;28;20033;-84
2023/08/13 04:49:06;;;;;;;10.63;3.22;;;16.10;99.90;;;;;;5004165;28;20552;-83
2023/08/13 04:51:32;;;;;;;12.55;3.15;;;16.20;99.90;;;;;;5024688;28;20053;-83
2023/08/13 04:53:58;;;;;;;9.15;3.08;;;16.20;99.90;;;;;;5009391;28;20060;-84
2023/08/13 04:56:23;;;;;;;12.98;3.42;;;16.40;99.90;;;;;;5029382;28;20038;-83
2023/08/13 04:58:49;;;;;;;14.10;3.60;;;16.30;99.90;;;;;;5016315;28;20413;-83
2023/08/13 05:01:14;;;;;;;10.65;3.60;;;16.30;99.90;;;;;;5023899;28;20136;-83
2023/08/13 05:03:40;;;;;;;13.75;3.63;;;16.40;99.90;;;;;;5038565;28;20562;-83
2023/08/13 05:06:06;;;;;;;12.02;3.80;;;16.40;99.90;;;;;;5017310;28;20393;-83
2023/08/13 05:08:31;;;;;;;14.35;3.55;;;16.40;99.90;;;;;;5012464;28;20075;-83
2023/08/13 05:10:57;;;;;;;13.93;3.65;;;16.50;99.90;;;;;;5016398;28;20033;-83
2023/08/13 05:13:22;;;;;;;10.65;3.70;;;16.50;99.90;;;;;;5015113;28;20033;-83
2023/08/13 05:15:48;;;;;;;12.98;4.10;;;16.50;99.90;;;;;;5014814;28;20521;-83
2023/08/13 05:18:13;;;;;;;9.98;3.08;;;16.50;99.90;;;;;;5017362;28;20033;-82
2023/08/13 05:20:39;;;;;;;11.65;3.45;;;16.50;99.90;;;;;;5009004;28;20033;-83
2023/08/13 05:23:05;;;;;;;13.45;3.53;;;16.50;99.90;;;;;;5017528;28;20038;-83
2023/08/13 05:25:30;;;;;;;16.10;4.00;;;16.60;99.90;;;;;;5018610;28;20067;-83
2023/08/13 05:27:56;;;;;;;11.63;3.40;;;16.50;99.90;;;;;;5008728;28;20064;-83
2023/08/13 05:30:21;;;;;;;11.95;3.53;;;16.60;99.90;;;;;;5018501;28;20113;-83
2023/08/13 05:32:47;;;;;;;11.50;3.67;;;16.50;99.90;;;;;;5026968;28;20078;-83
2023/08/13 05:35:13;;;;;;;10.48;3.50;;;16.70;99.90;;;;;;5004538;28;20449;-84
2023/08/13 05:37:38;;;;;;;13.82;3.75;;;16.60;99.90;;;;;;5014972;28;20490;-83
2023/08/13 05:40:05;;;;;;;13.40;3.53;;;16.70;99.90;;;;;;5035622;28;20095;-84
2023/08/13 05:42:30;;;;;;;14.70;4.30;;;16.70;99.90;;;;;;5048668;28;20087;-84
2023/08/13 05:44:56;;;;;;;12.35;4.05;;;16.80;99.90;;;;;;5015249;28;20033;-84
2023/08/13 05:47:22;;;;;;;11.18;3.40;;;16.80;99.90;;;;;;5026968;28;20060;-84
2023/08/13 05:49:47;;;;;;;11.00;3.80;;;16.90;99.90;;;;;;5020368;28;20037;-85
2023/08/13 05:52:13;;;;;;;12.23;3.78;;;16.90;99.90;;;;;;5029477;28;20406;-84
2023/08/13 05:54:38;;;;;;;14.15;3.72;;;16.90;99.90;;;;;;5031480;28;20041;-84
2023/08/13 05:57:04;;;;;;;15.85;3.90;;;16.90;99.90;;;;;;5003013;28;20038;-84
2023/08/13 05:59:30;;;;;;;12.30;4.20;;;16.90;99.90;;;;;;5015632;28;20045;-83
2023/08/13 06:01:55;;;;;;;12.43;4.03;;;16.90;99.90;;;;;;5008465;28;20030;-84
2023/08/13 06:04:21;;;;;;;13.23;3.90;;;16.90;99.90;;;;;;5027605;28;20087;-84
2023/08/13 06:06:48;;;;;;;9.50;3.45;;;16.90;99.90;;;;;;5020188;28;20509;-84
2023/08/13 06:09:14;;;;;;;12.77;3.28;;;16.80;99.90;;;;;;5017309;28;20402;-84
2023/08/13 06:11:39;;;;;;;11.38;3.70;;;16.90;99.90;;;;;;5010177;28;20037;-84
2023/08/13 06:14:05;;;;;;;13.60;3.83;;;16.90;99.90;;;;;;5011116;28;20037;-84
2023/08/13 06:16:31;;;;;;;14.60;3.70;;;16.80;99.90;;;;;;5008440;28;20406;-85
2023/08/13 06:18:56;;;;;;;13.40;4.05;;;16.90;99.90;;;;;;5017543;28;20045;-85
2023/08/13 06:21:22;;;;;;;12.95;4.30;;;17.00;99.90;;;;;;5020902;28;20719;-84
2023/08/13 06:23:48;;;;;;;15.30;3.80;;;17.10;99.90;;;;;;5026197;28;20045;-84
2023/08/13 06:26:14;;;;;;;16.10;3.92;;;17.00;99.90;;;;;;5014887;28;20386;-84
2023/08/13 06:28:40;;;;;;;12.45;4.00;;;17.10;99.90;;;;;;5015928;28;20049;-84
2023/08/13 06:31:06;;;;;;;14.05;3.72;;;17.20;99.90;;;;;;5006045;28;20489;-84
2023/08/13 06:33:32;;;;;;;12.38;3.88;;;17.20;99.90;;;;;;5025424;28;20034;-84
2023/08/13 06:35:57;;;;;;;13.57;4.20;;;17.20;99.90;;;;;;5017825;28;20383;-84
2023/08/13 06:38:24;;;;;;;13.05;3.45;;;17.20;99.90;;;;;;5002832;28;20077;-84
2023/08/13 06:40:49;;;;;;;12.93;3.90;;;17.10;99.90;;;;;;5007651;28;20120;-85
2023/08/13 06:43:15;;;;;;;12.60;4.10;;;17.20;99.90;;;;;;5022986;28;20588;-84
2023/08/13 06:45:41;;;;;;;13.77;4.50;;;17.30;99.90;;;;;;5031877;28;20041;-84
2023/08/13 06:48:06;;;;;;;11.70;3.53;;;17.40;99.90;;;;;;5032941;28;20071;-86
2023/08/13 06:50:35;;;;;;;15.48;4.00;;;17.50;99.90;;;;;;5019034;28;20664;-84
2023/08/13 06:53:01;;;;;;;12.18;3.88;;;17.50;99.90;;;;;;5028316;28;20083;-82
2023/08/13 06:55:26;;;;;;;11.43;3.22;;;17.60;99.90;;;;;;5012888;28;20065;-80
2023/08/13 06:57:52;;;;;;;12.30;4.00;;;17.60;99.90;;;;;;5032024;28;20095;-79
2023/08/13 07:00:19;;;;;;;14.07;4.20;;;17.70;99.90;;;;;;5024563;28;20033;-78
2023/08/13 07:02:46;;;;;;;11.63;3.63;;;17.70;99.90;;;;;;5033543;28;20045;-78
2023/08/13 07:05:12;;;;;;;14.85;4.18;;;17.80;99.90;;;;;;5019637;28;20159;-78
2023/08/13 07:07:38;;;;;;;13.60;4.13;;;17.80;99.90;;;;;;5028531;28;20044;-81
2023/08/13 07:10:04;;;;;;;13.10;4.00;;;17.80;99.90;;;;;;5027685;28;20026;-77
2023/08/13 07:12:30;;;;;;;12.32;3.60;;;17.80;99.90;;;;;;5018477;28;20560;-79
2023/08/13 07:14:56;;;;;;;15.05;3.67;;;17.90;99.90;;;;;;5016409;28;20049;-78
2023/08/13 07:17:21;;;;;;;13.38;4.15;;;18.00;99.90;;;;;;5028089;28;20394;-79
2023/08/13 07:19:49;;;;;;;12.35;4.20;;;18.00;99.90;;;;;;5032980;28;20521;-79
2023/08/13 07:22:14;;;;;;;13.00;3.83;;;18.10;99.90;;;;;;5007258;28;20088;-87
2023/08/13 07:24:40;;;;;;;11.30;4.05;;;18.10;99.90;;;;;;5022925;28;20033;-85
2023/08/13 07:27:05;;;;;;;10.38;3.70;;;18.20;99.90;;;;;;5000875;28;20061;-87
2023/08/13 07:29:31;;;;;;;11.32;3.55;;;18.20;99.90;;;;;;4998779;28;20072;-87
2023/08/13 07:31:57;;;;;;;12.90;3.63;;;18.20;99.90;;;;;;5032804;28;20084;-87
2023/08/13 07:34:22;;;;;;;14.65;4.45;;;18.20;99.90;;;;;;5015383;28;20041;-88
2023/08/13 07:36:48;;;;;;;15.18;4.10;;;18.30;99.90;;;;;;5034442;28;20076;-89
2023/08/13 07:39:15;;;;;;;11.77;4.32;;;18.40;99.90;;;;;;5029803;28;20045;-89
2023/08/13 07:41:41;;;;;;;16.38;3.97;;;18.50;99.90;;;;;;5032957;28;20041;-89
2023/08/13 07:44:07;;;;;;;11.45;3.78;;;18.50;99.90;;;;;;5004682;28;20045;-89
2023/08/13 07:46:33;;;;;;;13.32;4.28;;;18.70;99.90;;;;;;5014742;28;20125;-89
2023/08/13 07:48:58;;;;;;;9.75;3.65;;;18.70;99.90;;;;;;5000883;28;20472;-88
2023/08/13 07:51:25;;;;;;;13.15;3.88;;;18.70;99.90;;;;;;5020942;28;20077;-87
2023/08/13 07:53:50;;;;;;;13.55;4.30;;;18.80;99.90;;;;;;5025785;28;20041;-88
2023/08/13 07:56:16;;;;;;;10.23;3.15;;;18.90;99.90;;;;;;5016899;28;20037;-88
2023/08/13 07:58:41;;;;;;;12.48;4.03;;;18.90;99.90;;;;;;5029482;28;20088;-85
2023/08/13 08:01:08;;;;;;;11.93;3.00;;;18.90;99.90;;;;;;5031317;28;20033;-85
2023/08/13 08:03:33;;;;;;;12.50;3.70;;;18.90;99.90;;;;;;5030677;28;20038;-85
2023/08/13 08:05:59;;;;;;;12.90;3.17;;;18.80;99.90;;;;;;5032437;28;20037;-86
2023/08/13 08:08:25;;;;;;;12.20;3.10;;;18.90;99.90;;;;;;5005824;28;20037;-86
2023/08/13 08:10:50;;;;;;;14.07;3.33;;;19.00;99.90;;;;;;5005460;28;20087;-86
2023/08/13 08:13:16;;;;;;;13.80;3.95;;;19.10;99.90;;;;;;5014315;28;20041;-85
2023/08/13 08:15:41;;;;;;;13.25;3.72;;;19.30;99.90;;;;;;5030347;28;20044;-85
2023/08/13 08:18:07;;;;;;;11.32;3.53;;;19.30;99.90;;;;;;5029100;28;20038;-85
2023/08/13 08:20:33;;;;;;;16.63;3.70;;;19.40;99.90;;;;;;5013489;28;20041;-85
2023/08/13 08:22:58;;;;;;;11.02;3.33;;;19.50;99.90;;;;;;5030187;28;20077;-84
2023/08/13 08:25:24;;;;;;;10.70;3.30;;;19.60;99.90;;;;;;5014974;28;20527;-85
2023/08/13 08:27:50;;;;;;;9.00;2.88;;;19.70;99.90;;;;;;5030580;28;20050;-86
2023/08/13 08:30:16;;;;;;;8.00;2.50;;;19.90;99.90;;;;;;5031782;28;20402;-85
2023/08/13 08:32:42;;;;;;;9.77;2.28;;;19.90;99.90;;;;;;5002234;28;20033;-86
2023/08/13 08:35:07;;;;;;;10.65;2.35;;;20.00;99.90;;;;;;4995379;28;20506;-86
2023/08/13 08:37:34;;;;;;;8.07;2.25;;;20.10;99.90;;;;;;5030897;28;20052;-85
2023/08/13 08:40:00;;;;;;;12.18;2.80;;;20.20;99.90;;;;;;5029547;28;20041;-86
2023/08/13 08:42:26;;;;;;;11.27;2.47;;;20.20;99.90;;;;;;5018272;28;20397;-85
2023/08/13 08:44:52;;;;;;;9.48;2.72;;;20.20;99.90;;;;;;5021906;28;20107;-85
2023/08/13 08:47:20;;;;;;;11.48;2.17;;;20.30;99.90;;;;;;5009991;28;20501;-86
2023/08/13 08:49:48;;;;;;;9.73;2.55;;;20.30;99.90;;;;;;5026611;28;20124;-85
2023/08/13 08:52:16;;;;;;;8.52;2.08;;;20.40;99.90;;;;;;5015858;28;20037;-85
2023/08/13 08:54:43;;;;;;;8.57;2.25;;;20.20;99.90;;;;;;5012761;28;20042;-85
2023/08/13 08:57:09;;;;;;;7.68;1.83;;;20.30;99.90;;;;;;5014938;28;20037;-85
2023/08/13 08:59:35;;;;;;;11.77;2.03;;;20.20;99.90;;;;;;5030554;28;20033;-85
2023/08/13 09:02:02;;;;;;;8.68;1.85;;;20.20;99.90;;;;;;5013827;28;20087;-85
2023/08/13 09:04:28;;;;;;;10.27;2.50;;;20.40;99.90;;;;;;5014419;28;20049;-84
2023/08/13 09:07:00;;;;;;;9.38;2.20;;;20.30;99.90;;;;;;5029984;28;20043;-85
2023/08/13 09:09:27;;;;;;;9.10;2.40;;;20.20;99.90;;;;;;5028613;28;20039;-85
2023/08/13 09:11:54;;;;;;;9.70;2.38;;;20.20;99.90;;;;;;5019140;28;20494;-85
2023/08/13 09:14:20;;;;;;;7.70;2.22;;;20.30;99.90;;;;;;5026091;28;20049;-85
2023/08/13 09:16:51;;;;;;;8.65;2.25;;;20.50;99.90;;;;;;5030538;28;20046;-86
2023/08/13 09:19:17;;;;;;;9.82;2.63;;;20.60;99.90;;;;;;5029868;28;20045;-86
2023/08/13 09:21:54;;;;;;;8.60;2.33;;;20.70;99.90;;;;;;5023581;28;20042;-85
2023/08/13 09:24:33;;;;;;;9.55;2.38;;;20.80;99.90;;;;;;5031253;28;20045;-85
2023/08/13 09:27:00;;;;;;;9.82;2.30;;;20.70;99.90;;;;;;5033427;28;20528;-85
2023/08/13 09:29:30;;;;;;;11.18;2.20;;;20.70;99.90;;;;;;5016257;28;20041;-85
2023/08/13 09:31:57;;;;;;;7.78;2.50;;;20.90;99.90;;;;;;5038299;28;20048;-85
2023/08/13 09:34:23;;;;;;;9.57;2.40;;;20.90;99.90;;;;;;5017679;28;20441;-86
2023/08/13 09:36:52;;;;;;;7.50;1.98;;;21.00;99.90;;;;;;5033800;28;20091;-86
2023/08/13 09:39:18;;;;;;;7.65;1.90;;;21.00;99.90;;;;;;5034007;28;20097;-85
2023/08/13 09:41:45;;;;;;;10.05;2.58;;;20.90;99.90;;;;;;5016709;28;20426;-85
2023/08/13 09:44:14;;;;;;;8.10;2.05;;;21.00;99.90;;;;;;5020542;28;20081;-85
2023/08/13 09:46:41;;;;;;;7.95;1.88;;;20.90;99.90;;;;;;5031022;28;20037;-86
2023/08/13 09:49:11;;;;;;;7.93;2.47;;;21.10;99.90;;;;;;5000330;28;20042;-85
2023/08/13 09:51:38;;;;;;;9.10;2.20;;;21.10;99.90;;;;;;5029941;28;20538;-85
2023/08/13 09:54:50;;;;;;;5.85;1.80;;;21.20;99.90;;;;;;5033822;28;20567;-85
2023/08/13 09:57:17;;;;;;;7.25;1.90;;;21.30;99.90;;;;;;4992425;28;20517;-85
2023/08/13 09:59:44;;;;;;;5.55;1.77;;;21.40;99.90;;;;;;5009178;28;20061;-85
2023/08/13 10:02:11;;;;;;;6.88;2.13;;;21.40;99.90;;;;;;4992313;28;20375;-85
2023/08/13 10:04:41;;;;;;;7.72;2.22;;;21.40;99.90;;;;;;5023984;28;20116;-85
2023/08/13 10:07:08;;;;;;;7.18;2.13;;;21.50;99.90;;;;;;5008827;28;20096;-85
2023/08/13 10:09:34;;;;;;;6.00;2.20;;;21.50;99.90;;;;;;5014912;28;20045;-85
2023/08/13 10:12:01;;;;;;;8.75;2.20;;;21.50;99.90;;;;;;5031875;28;20037;-85
2023/08/13 10:14:28;;;;;;;4.55;1.45;;;21.40;99.90;;;;;;5022442;28;20151;-84
2023/08/13 10:16:54;;;;;;;6.03;1.70;;;21.60;99.90;;;;;;5008563;28;20095;-85
2023/08/13 10:19:30;;;;;;;9.05;1.90;;;21.70;99.90;;;;;;5009139;28;20045;-85
2023/08/13 10:21:57;;;;;;;8.45;2.20;;;21.70;99.90;;;;;;4997832;28;20364;-85
2023/08/13 10:24:23;;;;;;;6.90;1.75;;;21.60;99.90;;;;;;5024371;28;20045;-86
2023/08/13 10:26:49;;;;;;;5.15;1.45;;;21.50;99.90;;;;;;5014849;28;20085;-85
2023/08/13 10:29:20;;;;;;;6.30;1.80;;;21.50;99.90;;;;;;5015982;28;20041;-85
2023/08/13 10:31:58;;;;;;;5.65;1.40;;;21.40;99.90;;;;;;5031806;28;20044;-85
2023/08/13 10:34:50;;;;;;;6.95;1.63;;;21.40;99.90;;;;;;5028044;28;20116;-86
2023/08/13 10:37:17;;;;;;;10.85;2.15;;;21.40;99.90;;;;;;5031395;28;20041;-85
2023/08/13 10:39:43;;;;;;;7.82;1.75;;;21.40;99.90;;;;;;5031601;28;20045;-86
2023/08/13 10:42:32;;;;;;;4.45;1.40;;;21.50;99.90;;;;;;5033109;28;20052;-85
2023/08/13 10:45:09;;;;;;;7.00;1.50;;;21.70;99.90;;;;;;5001738;28;20049;-85
2023/08/13 10:47:48;;;;;;;7.70;1.70;;;21.60;99.90;;;;;;5032546;28;20034;-85
2023/08/13 10:50:18;;;;;;;5.97;1.58;;;21.60;99.90;;;;;;5004925;28;20041;-85
2023/08/13 10:52:47;;;;;;;6.22;1.40;;;21.60;99.90;;;;;;5012779;28;20041;-85
2023/08/13 10:55:16;;;;;;;8.73;1.88;;;21.60;99.90;;;;;;5012361;28;20053;-84
2023/08/13 10:57:41;;;;;;;4.82;1.40;;;21.60;99.90;;;;;;5009648;28;20041;-85
2023/08/13 11:00:12;;;;;;;4.43;1.45;;;21.80;99.90;;;;;;5013386;28;20099;-85
2023/08/13 11:02:37;;;;;;;4.28;1.17;;;21.90;99.90;;;;;;5024084;28;20042;-85
2023/08/13 11:05:03;;;;;;;9.75;1.83;;;22.00;99.90;;;;;;5005768;28;20448;-86
2023/08/13 11:07:31;;;;;;;6.35;1.60;;;22.00;99.90;;;;;;5016811;28;20038;-85
2023/08/13 11:09:57;;;;;;;5.72;1.40;;;21.90;99.90;;;;;;5028838;28;20042;-85
2023/08/13 11:12:22;;;;;;;3.95;1.33;;;22.00;99.90;;;;;;5010372;28;20445;-85
2023/08/13 11:14:48;;;;;;;5.22;1.50;;;22.00;99.90;;;;;;5029224;28;20038;-85
2023/08/13 11:17:14;;;;;;;6.78;1.45;;;22.10;99.90;;;;;;5016698;28;20091;-85
2023/08/13 11:19:39;;;;;;;8.73;1.60;;;22.10;99.90;;;;;;5030389;28;20041;-85
2023/08/13 11:22:05;;;;;;;7.57;1.30;;;22.00;99.90;;;;;;5012838;28;20379;-84
2023/08/13 11:24:34;;;;;;;7.65;1.40;;;21.90;99.90;;;;;;5028823;28;20097;-85
2023/08/13 11:27:00;;;;;;;7.43;1.20;;;21.90;99.90;;;;;;5019878;28;20536;-85
2023/08/13 11:29:26;;;;;;;6.57;1.55;;;21.80;99.90;;;;;;5019091;28;20108;-84
2023/08/13 11:31:51;;;;;;;5.10;1.10;;;21.70;99.90;;;;;;5023483;28;20517;-85
2023/08/13 11:34:17;;;;;;;6.18;1.35;;;21.70;99.90;;;;;;5018365;28;20048;-84
2023/08/13 11:36:45;;;;;;;5.65;1.20;;;21.70;99.90;;;;;;5018330;28;20037;-85
2023/08/13 11:39:11;;;;;;;4.88;1.20;;;21.70;99.90;;;;;;5013804;28;20144;-85
2023/08/13 11:41:37;;;;;;;6.18;1.05;;;21.60;99.90;;;;;;5016452;28;20038;-85
2023/08/13 11:44:04;;;;;;;4.60;1.20;;;21.60;99.90;;;;;;5020683;28;20052;-85
2023/08/13 11:46:57;;;;;;;6.28;1.20;;;21.60;99.90;;;;;;5008042;28;20453;-85
2023/08/13 11:49:23;;;;;;;5.25;1.08;;;21.60;99.90;;;;;;5027929;28;20405;-85
2023/08/13 11:51:49;;;;;;;5.13;1.90;;;21.40;99.90;;;;;;5013671;28;20060;-82
2023/08/13 11:54:22;;;;;;;4.47;1.20;;;21.40;99.90;;;;;;5030054;28;20489;-83
2023/08/13 11:56:51;;;;;;;6.55;1.90;;;21.20;99.90;;;;;;5033105;28;20064;-83
2023/08/13 11:59:24;;;;;;;3.80;1.25;;;21.30;99.90;;;;;;5033116;28;20037;-82
2023/08/13 12:01:52;;;;;;;6.25;1.45;;;21.10;99.90;;;;;;5032043;28;20041;-84
2023/08/13 12:04:18;;;;;;;8.10;1.80;;;21.10;99.90;;;;;;5031782;28;20069;-83
2023/08/13 12:06:46;;;;;;;9.13;2.08;;;21.10;99.90;;;;;;5030820;28;20476;-83
2023/08/13 12:09:13;;;;;;;6.93;1.65;;;21.20;99.90;;;;;;5020368;28;20128;-83
2023/08/13 12:11:41;;;;;;;8.98;1.60;;;21.10;99.90;;;;;;5012539;28;20572;-83
2023/08/13 12:14:07;;;;;;;7.03;1.70;;;21.20;99.90;;;;;;5029309;28;20041;-83
2023/08/13 12:16:33;;;;;;;7.70;1.85;;;21.20;99.90;;;;;;5031368;28;20171;-82
2023/08/13 12:19:00;;;;;;;7.95;2.47;;;21.30;99.90;;;;;;5028611;28;20041;-82
2023/08/13 12:21:26;;;;;;;9.73;2.05;;;21.30;99.90;;;;;;5020184;28;20049;-83
2023/08/13 12:23:51;;;;;;;8.35;1.60;;;21.40;99.90;;;;;;5029604;28;20517;-83
2023/08/13 12:26:17;;;;;;;5.35;1.80;;;21.50;99.90;;;;;;5016228;28;21120;-83
2023/08/13 12:28:47;;;;;;;7.18;1.80;;;21.60;99.90;;;;;;5001593;28;20044;-83
2023/08/13 12:31:13;;;;;;;7.78;1.80;;;21.70;99.90;;;;;;5032688;28;20060;-82
2023/08/13 12:33:39;;;;;;;6.28;1.55;;;21.80;99.90;;;;;;5031850;28;20493;-83
2023/08/13 12:36:04;;;;;;;5.50;1.63;;;21.90;99.90;;;;;;5014636;28;20052;-83
2023/08/13 12:38:31;;;;;;;8.07;1.50;;;22.00;99.90;;;;;;5032323;28;20044;-83